sensor_id;sensor_type;location;lat;lon;timestamp;temperature;humidity
20512;DHT22;10414;52.074;5.126;2023-02-15T00:02:00;6.40;99.90
20512;DHT22;10414;52.074;5.126;2023-02-15T00:04:27;6.50;99.90
20512;DHT22;10414;52.074;5.126;2023-02-15T00:07:14;6.50;99.90
20512;DHT22;10414;52.074;5.126;2023-02-15T00:09:41;6.50;99.90
20512;DHT22;10414;52.074;5.126;2023-02-15T00:12:09;6.50;99.90
20512;DHT22;10414;52.074;5.126;2023-02-15T00:14:36;6.30;99.90
20512;DHT22;10414;52.074;5.126;2023-02-15T00:17:03;5.90;99.90
20512;DHT22;10414;52.074;5.126;2023-02-15T00:19:29;5.90;99.90
20512;DHT22;10414;52.074;5.126;2023-02-15T00:21:57;5.80;99.90
20512;DHT22;10414;52.074;5.126;2023-02-15T00:24:25;5.80;99.90
20512;DHT22;10414;52.074;5.126;2023-02-15T00:26:52;5.90;99.90
20512;DHT22;10414;52.074;5.126;2023-02-15T00:29:19;6.00;99.90
20512;DHT22;10414;52.074;5.126;2023-02-15T00:31:46;6.00;99.90
20512;DHT22;10414;52.074;5.126;2023-02-15T00:34:15;5.70;99.90
20512;DHT22;10414;52.074;5.126;2023-02-15T00:36:42;5.50;99.90
20512;DHT22;10414;52.074;5.126;2023-02-15T00:39:09;5.70;99.90
20512;DHT22;10414;52.074;5.126;2023-02-15T00:41:38;5.70;99.90
20512;DHT22;10414;52.074;5.126;2023-02-15T00:44:05;5.70;99.90
20512;DHT22;10414;52.074;5.126;2023-02-15T00:46:33;5.80;99.90
20512;DHT22;10414;52.074;5.126;2023-02-15T00:49:00;6.00;99.90
20512;DHT22;10414;52.074;5.126;2023-02-15T00:51:27;6.10;99.90
20512;DHT22;10414;52.074;5.126;2023-02-15T00:53:54;6.00;99.90
20512;DHT22;10414;52.074;5.126;2023-02-15T00:56:21;6.10;99.90
20512;DHT22;10414;52.074;5.126;2023-02-15T00:58:49;5.90;99.90
20512;DHT22;10414;52.074;5.126;2023-02-15T01:01:18;5.90;99.90
20512;DHT22;10414;52.074;5.126;2023-02-15T01:03:46;5.90;99.90
20512;DHT22;10414;52.074;5.126;2023-02-15T01:06:14;5.80;99.90
20512;DHT22;10414;52.074;5.126;2023-02-15T01:08:41;5.90;99.90
20512;DHT22;10414;52.074;5.126;2023-02-15T01:11:09;5.90;99.90
20512;DHT22;10414;52.074;5.126;2023-02-15T01:13:37;5.90;99.90
20512;DHT22;10414;52.074;5.126;2023-02-15T01:16:06;5.80;99.90
20512;DHT22;10414;52.074;5.126;2023-02-15T01:18:33;5.80;99.90
20512;DHT22;10414;52.074;5.126;2023-02-15T01:21:00;5.80;99.90
20512;DHT22;10414;52.074;5.126;2023-02-15T01:23:34;5.80;99.90
20512;DHT22;10414;52.074;5.126;2023-02-15T01:26:02;5.80;99.90
20512;DHT22;10414;52.074;5.126;2023-02-15T01:28:29;5.70;99.90
20512;DHT22;10414;52.074;5.126;2023-02-15T01:30:56;5.60;99.90
20512;DHT22;10414;52.074;5.126;2023-02-15T01:33:24;5.20;99.90
20512;DHT22;10414;52.074;5.126;2023-02-15T01:35:56;5.00;99.90
20512;DHT22;10414;52.074;5.126;2023-02-15T01:38:23;5.00;99.90
20512;DHT22;10414;52.074;5.126;2023-02-15T01:40:51;5.10;99.90
20512;DHT22;10414;52.074;5.126;2023-02-15T01:43:17;5.30;99.90
20512;DHT22;10414;52.074;5.126;2023-02-15T01:45:46;5.60;99.90
20512;DHT22;10414;52.074;5.126;2023-02-15T01:48:19;5.50;99.90
20512;DHT22;10414;52.074;5.126;2023-02-15T01:50:51;5.50;99.90
20512;DHT22;10414;52.074;5.126;2023-02-15T01:53:21;5.40;99.90
20512;DHT22;10414;52.074;5.126;2023-02-15T01:55:54;5.10;99.90
20512;DHT22;10414;52.074;5.126;2023-02-15T01:58:22;5.10;99.90
20512;DHT22;10414;52.074;5.126;2023-02-15T02:00:51;5.40;99.90
20512;DHT22;10414;52.074;5.126;2023-02-15T02:03:24;5.60;99.90
20512;DHT22;10414;52.074;5.126;2023-02-15T02:05:58;5.70;99.90
20512;DHT22;10414;52.074;5.126;2023-02-15T02:08:27;5.30;99.90
20512;DHT22;10414;52.074;5.126;2023-02-15T02:10:54;5.10;99.90
20512;DHT22;10414;52.074;5.126;2023-02-15T02:13:21;5.20;99.90
20512;DHT22;10414;52.074;5.126;2023-02-15T02:15:54;5.20;99.90
20512;DHT22;10414;52.074;5.126;2023-02-15T02:18:34;5.20;99.90
20512;DHT22;10414;52.074;5.126;2023-02-15T02:21:28;5.20;99.90
20512;DHT22;10414;52.074;5.126;2023-02-15T02:24:23;5.20;99.90
20512;DHT22;10414;52.074;5.126;2023-02-15T02:27:18;5.50;99.90
20512;DHT22;10414;52.074;5.126;2023-02-15T02:32:58;5.60;99.90
20512;DHT22;10414;52.074;5.126;2023-02-15T02:35:36;5.20;99.90
20512;DHT22;10414;52.074;5.126;2023-02-15T02:38:10;5.20;99.90
20512;DHT22;10414;52.074;5.126;2023-02-15T02:40:45;5.50;99.90
20512;DHT22;10414;52.074;5.126;2023-02-15T02:43:20;5.50;99.90
20512;DHT22;10414;52.074;5.126;2023-02-15T02:45:52;5.40;99.90
20512;DHT22;10414;52.074;5.126;2023-02-15T02:48:25;5.10;99.90
20512;DHT22;10414;52.074;5.126;2023-02-15T02:50:53;5.20;99.90
20512;DHT22;10414;52.074;5.126;2023-02-15T02:53:20;5.40;99.90
20512;DHT22;10414;52.074;5.126;2023-02-15T02:55:49;5.20;99.90
20512;DHT22;10414;52.074;5.126;2023-02-15T02:58:21;4.90;99.90
20512;DHT22;10414;52.074;5.126;2023-02-15T03:00:55;4.70;99.90
20512;DHT22;10414;52.074;5.126;2023-02-15T03:03:29;4.50;99.90
20512;DHT22;10414;52.074;5.126;2023-02-15T03:05:58;4.40;99.90
20512;DHT22;10414;52.074;5.126;2023-02-15T03:08:32;4.50;99.90
20512;DHT22;10414;52.074;5.126;2023-02-15T03:11:02;4.70;99.90
20512;DHT22;10414;52.074;5.126;2023-02-15T03:13:29;4.80;99.90
20512;DHT22;10414;52.074;5.126;2023-02-15T03:15:58;4.90;99.90
20512;DHT22;10414;52.074;5.126;2023-02-15T03:18:47;4.60;99.90
20512;DHT22;10414;52.074;5.126;2023-02-15T03:21:19;4.50;99.90
20512;DHT22;10414;52.074;5.126;2023-02-15T03:23:51;4.70;99.90
20512;DHT22;10414;52.074;5.126;2023-02-15T03:26:20;4.50;99.90
20512;DHT22;10414;52.074;5.126;2023-02-15T03:28:49;4.40;99.90
20512;DHT22;10414;52.074;5.126;2023-02-15T03:31:18;4.50;99.90
20512;DHT22;10414;52.074;5.126;2023-02-15T03:33:51;4.50;99.90
20512;DHT22;10414;52.074;5.126;2023-02-15T03:36:20;4.50;99.90
20512;DHT22;10414;52.074;5.126;2023-02-15T03:38:51;4.40;99.90
20512;DHT22;10414;52.074;5.126;2023-02-15T03:41:20;4.70;99.90
20512;DHT22;10414;52.074;5.126;2023-02-15T03:43:53;4.80;99.90
20512;DHT22;10414;52.074;5.126;2023-02-15T03:46:24;4.50;99.90
20512;DHT22;10414;52.074;5.126;2023-02-15T03:48:56;4.70;99.90
20512;DHT22;10414;52.074;5.126;2023-02-15T03:51:28;4.80;99.90
20512;DHT22;10414;52.074;5.126;2023-02-15T03:54:06;5.10;99.90
20512;DHT22;10414;52.074;5.126;2023-02-15T03:56:34;5.20;99.90
20512;DHT22;10414;52.074;5.126;2023-02-15T03:59:02;5.10;99.90
20512;DHT22;10414;52.074;5.126;2023-02-15T04:01:51;4.90;99.90
20512;DHT22;10414;52.074;5.126;2023-02-15T04:04:36;4.70;99.90
20512;DHT22;10414;52.074;5.126;2023-02-15T04:07:04;4.70;99.90
20512;DHT22;10414;52.074;5.126;2023-02-15T04:09:32;4.40;99.90
20512;DHT22;10414;52.074;5.126;2023-02-15T04:12:16;4.40;99.90
20512;DHT22;10414;52.074;5.126;2023-02-15T04:14:43;4.60;99.90
20512;DHT22;10414;52.074;5.126;2023-02-15T04:17:27;4.60;99.90
20512;DHT22;10414;52.074;5.126;2023-02-15T04:19:55;4.30;99.90
20512;DHT22;10414;52.074;5.126;2023-02-15T04:22:40;4.10;99.90
20512;DHT22;10414;52.074;5.126;2023-02-15T04:25:24;4.40;99.90
20512;DHT22;10414;52.074;5.126;2023-02-15T04:27:52;4.40;99.90
20512;DHT22;10414;52.074;5.126;2023-02-15T04:30:21;4.20;99.90
20512;DHT22;10414;52.074;5.126;2023-02-15T04:32:49;4.20;99.90
20512;DHT22;10414;52.074;5.126;2023-02-15T04:35:18;4.20;99.90
20512;DHT22;10414;52.074;5.126;2023-02-15T04:37:45;4.20;99.90
20512;DHT22;10414;52.074;5.126;2023-02-15T04:40:13;4.10;99.90
20512;DHT22;10414;52.074;5.126;2023-02-15T04:42:40;4.10;99.90
20512;DHT22;10414;52.074;5.126;2023-02-15T04:45:08;4.00;99.90
20512;DHT22;10414;52.074;5.126;2023-02-15T04:47:35;4.10;99.90
20512;DHT22;10414;52.074;5.126;2023-02-15T04:50:02;3.90;99.90
20512;DHT22;10414;52.074;5.126;2023-02-15T04:52:30;3.90;99.90
20512;DHT22;10414;52.074;5.126;2023-02-15T04:54:57;3.90;99.90
20512;DHT22;10414;52.074;5.126;2023-02-15T04:57:25;4.10;99.90
20512;DHT22;10414;52.074;5.126;2023-02-15T04:59:52;4.20;99.90
20512;DHT22;10414;52.074;5.126;2023-02-15T05:02:19;4.20;99.90
20512;DHT22;10414;52.074;5.126;2023-02-15T05:04:46;4.10;99.90
20512;DHT22;10414;52.074;5.126;2023-02-15T05:07:13;4.00;99.90
20512;DHT22;10414;52.074;5.126;2023-02-15T05:09:42;4.00;99.90
20512;DHT22;10414;52.074;5.126;2023-02-15T05:12:09;3.90;99.90
20512;DHT22;10414;52.074;5.126;2023-02-15T05:14:35;3.90;99.90
20512;DHT22;10414;52.074;5.126;2023-02-15T05:17:02;4.10;99.90
20512;DHT22;10414;52.074;5.126;2023-02-15T05:19:30;4.00;99.90
20512;DHT22;10414;52.074;5.126;2023-02-15T05:21:58;4.00;99.90
20512;DHT22;10414;52.074;5.126;2023-02-15T05:24:24;3.90;99.90
20512;DHT22;10414;52.074;5.126;2023-02-15T05:27:11;3.80;99.90
20512;DHT22;10414;52.074;5.126;2023-02-15T05:29:56;3.70;99.90
20512;DHT22;10414;52.074;5.126;2023-02-15T05:32:22;3.80;99.90
20512;DHT22;10414;52.074;5.126;2023-02-15T05:34:49;3.80;99.90
20512;DHT22;10414;52.074;5.126;2023-02-15T05:37:16;3.80;99.90
20512;DHT22;10414;52.074;5.126;2023-02-15T05:39:43;4.10;99.90
20512;DHT22;10414;52.074;5.126;2023-02-15T05:42:11;4.10;99.90
20512;DHT22;10414;52.074;5.126;2023-02-15T05:44:38;4.10;99.90
20512;DHT22;10414;52.074;5.126;2023-02-15T05:47:05;3.80;99.90
20512;DHT22;10414;52.074;5.126;2023-02-15T05:49:33;3.90;99.90
20512;DHT22;10414;52.074;5.126;2023-02-15T05:51:59;4.00;99.90
20512;DHT22;10414;52.074;5.126;2023-02-15T05:54:27;3.90;99.90
20512;DHT22;10414;52.074;5.126;2023-02-15T05:56:54;3.80;99.90
20512;DHT22;10414;52.074;5.126;2023-02-15T05:59:22;3.70;99.90
20512;DHT22;10414;52.074;5.126;2023-02-15T06:01:49;3.50;99.90
20512;DHT22;10414;52.074;5.126;2023-02-15T06:04:17;3.50;99.90
20512;DHT22;10414;52.074;5.126;2023-02-15T06:06:44;3.40;99.90
20512;DHT22;10414;52.074;5.126;2023-02-15T06:09:11;3.60;99.90
20512;DHT22;10414;52.074;5.126;2023-02-15T06:11:38;3.60;99.90
20512;DHT22;10414;52.074;5.126;2023-02-15T06:14:05;3.70;99.90
20512;DHT22;10414;52.074;5.126;2023-02-15T06:16:33;3.60;99.90
20512;DHT22;10414;52.074;5.126;2023-02-15T06:19:00;3.70;99.90
20512;DHT22;10414;52.074;5.126;2023-02-15T06:21:27;3.50;99.90
20512;DHT22;10414;52.074;5.126;2023-02-15T06:23:54;3.40;99.90
20512;DHT22;10414;52.074;5.126;2023-02-15T06:26:24;3.50;99.90
20512;DHT22;10414;52.074;5.126;2023-02-15T06:28:51;3.40;99.90
20512;DHT22;10414;52.074;5.126;2023-02-15T06:31:18;3.30;99.90
20512;DHT22;10414;52.074;5.126;2023-02-15T06:33:46;3.50;99.90
20512;DHT22;10414;52.074;5.126;2023-02-15T06:36:13;3.40;99.90
20512;DHT22;10414;52.074;5.126;2023-02-15T06:38:40;3.40;99.90
20512;DHT22;10414;52.074;5.126;2023-02-15T06:41:07;3.60;99.90
20512;DHT22;10414;52.074;5.126;2023-02-15T06:43:34;3.50;99.90
20512;DHT22;10414;52.074;5.126;2023-02-15T06:46:01;3.30;99.90
20512;DHT22;10414;52.074;5.126;2023-02-15T06:48:28;3.20;99.90
20512;DHT22;10414;52.074;5.126;2023-02-15T06:50:56;3.20;99.90
20512;DHT22;10414;52.074;5.126;2023-02-15T06:53:23;3.50;99.90
20512;DHT22;10414;52.074;5.126;2023-02-15T06:55:50;3.60;99.90
20512;DHT22;10414;52.074;5.126;2023-02-15T06:58:17;3.50;99.90
20512;DHT22;10414;52.074;5.126;2023-02-15T07:00:43;3.30;99.90
20512;DHT22;10414;52.074;5.126;2023-02-15T07:03:13;3.40;99.90
20512;DHT22;10414;52.074;5.126;2023-02-15T07:05:40;3.60;99.90
20512;DHT22;10414;52.074;5.126;2023-02-15T07:08:08;3.70;99.90
20512;DHT22;10414;52.074;5.126;2023-02-15T07:10:35;3.70;99.90
20512;DHT22;10414;52.074;5.126;2023-02-15T07:13:02;3.80;99.90
20512;DHT22;10414;52.074;5.126;2023-02-15T07:15:28;3.70;99.90
20512;DHT22;10414;52.074;5.126;2023-02-15T07:17:55;3.40;99.90
20512;DHT22;10414;52.074;5.126;2023-02-15T07:20:23;3.40;99.90
20512;DHT22;10414;52.074;5.126;2023-02-15T07:22:50;3.50;99.90
20512;DHT22;10414;52.074;5.126;2023-02-15T07:25:19;3.50;99.90
20512;DHT22;10414;52.074;5.126;2023-02-15T07:27:46;3.60;99.90
20512;DHT22;10414;52.074;5.126;2023-02-15T07:30:15;3.60;99.90
20512;DHT22;10414;52.074;5.126;2023-02-15T07:32:42;3.80;99.90
20512;DHT22;10414;52.074;5.126;2023-02-15T07:35:24;3.90;99.90
20512;DHT22;10414;52.074;5.126;2023-02-15T07:37:51;4.10;99.90
20512;DHT22;10414;52.074;5.126;2023-02-15T07:40:20;4.10;99.90
20512;DHT22;10414;52.074;5.126;2023-02-15T07:42:49;3.90;99.90
20512;DHT22;10414;52.074;5.126;2023-02-15T07:45:18;4.10;99.90
20512;DHT22;10414;52.074;5.126;2023-02-15T07:47:45;4.10;99.90
20512;DHT22;10414;52.074;5.126;2023-02-15T07:50:12;4.40;99.90
20512;DHT22;10414;52.074;5.126;2023-02-15T07:52:38;4.80;99.90
20512;DHT22;10414;52.074;5.126;2023-02-15T07:55:06;4.90;99.90
20512;DHT22;10414;52.074;5.126;2023-02-15T07:57:35;5.00;99.90
20512;DHT22;10414;52.074;5.126;2023-02-15T08:00:03;5.20;99.90
20512;DHT22;10414;52.074;5.126;2023-02-15T08:02:29;5.60;99.90
20512;DHT22;10414;52.074;5.126;2023-02-15T08:04:56;5.70;99.90
20512;DHT22;10414;52.074;5.126;2023-02-15T08:07:23;6.10;99.90
20512;DHT22;10414;52.074;5.126;2023-02-15T08:09:51;6.50;99.90
20512;DHT22;10414;52.074;5.126;2023-02-15T08:12:19;6.80;99.90
20512;DHT22;10414;52.074;5.126;2023-02-15T08:14:47;6.60;99.90
20512;DHT22;10414;52.074;5.126;2023-02-15T08:17:14;6.70;99.90
20512;DHT22;10414;52.074;5.126;2023-02-15T08:19:41;6.80;99.90
20512;DHT22;10414;52.074;5.126;2023-02-15T08:22:10;7.00;99.90
20512;DHT22;10414;52.074;5.126;2023-02-15T08:24:38;7.90;99.90
20512;DHT22;10414;52.074;5.126;2023-02-15T08:27:06;8.40;99.90
20512;DHT22;10414;52.074;5.126;2023-02-15T08:29:34;8.80;99.90
20512;DHT22;10414;52.074;5.126;2023-02-15T08:32:04;9.60;99.90
20512;DHT22;10414;52.074;5.126;2023-02-15T08:34:35;9.90;99.90
20512;DHT22;10414;52.074;5.126;2023-02-15T08:37:04;9.90;99.90
20512;DHT22;10414;52.074;5.126;2023-02-15T08:39:32;9.10;99.90
20512;DHT22;10414;52.074;5.126;2023-02-15T08:41:59;9.80;99.90
20512;DHT22;10414;52.074;5.126;2023-02-15T08:44:26;9.90;99.90
20512;DHT22;10414;52.074;5.126;2023-02-15T08:46:53;11.00;99.90
20512;DHT22;10414;52.074;5.126;2023-02-15T08:49:22;10.90;99.90
20512;DHT22;10414;52.074;5.126;2023-02-15T08:51:50;10.70;99.90
20512;DHT22;10414;52.074;5.126;2023-02-15T08:54:19;11.80;99.90
20512;DHT22;10414;52.074;5.126;2023-02-15T08:56:46;12.40;99.90
20512;DHT22;10414;52.074;5.126;2023-02-15T08:59:15;11.70;99.90
20512;DHT22;10414;52.074;5.126;2023-02-15T09:01:42;9.90;99.90
20512;DHT22;10414;52.074;5.126;2023-02-15T09:04:10;10.30;99.90
20512;DHT22;10414;52.074;5.126;2023-02-15T09:06:41;10.10;99.90
20512;DHT22;10414;52.074;5.126;2023-02-15T09:09:10;11.10;99.90
20512;DHT22;10414;52.074;5.126;2023-02-15T09:11:39;11.50;99.90
20512;DHT22;10414;52.074;5.126;2023-02-15T09:14:07;11.10;99.90
20512;DHT22;10414;52.074;5.126;2023-02-15T09:16:36;11.00;99.90
20512;DHT22;10414;52.074;5.126;2023-02-15T09:19:04;11.50;99.90
20512;DHT22;10414;52.074;5.126;2023-02-15T09:21:32;12.50;99.90
20512;DHT22;10414;52.074;5.126;2023-02-15T09:24:02;13.20;99.90
20512;DHT22;10414;52.074;5.126;2023-02-15T09:26:34;13.20;99.90
20512;DHT22;10414;52.074;5.126;2023-02-15T09:29:01;13.70;99.90
20512;DHT22;10414;52.074;5.126;2023-02-15T09:31:30;13.90;99.90
20512;DHT22;10414;52.074;5.126;2023-02-15T09:33:58;12.60;99.90
20512;DHT22;10414;52.074;5.126;2023-02-15T09:36:28;12.90;99.90
20512;DHT22;10414;52.074;5.126;2023-02-15T09:38:57;12.80;99.90
20512;DHT22;10414;52.074;5.126;2023-02-15T09:41:41;13.60;99.90
20512;DHT22;10414;52.074;5.126;2023-02-15T09:44:19;15.00;99.90
20512;DHT22;10414;52.074;5.126;2023-02-15T09:49:52;16.50;99.90
20512;DHT22;10414;52.074;5.126;2023-02-15T09:52:33;15.70;99.90
20512;DHT22;10414;52.074;5.126;2023-02-15T09:55:14;15.90;99.90
20512;DHT22;10414;52.074;5.126;2023-02-15T09:57:51;16.30;99.90
20512;DHT22;10414;52.074;5.126;2023-02-15T10:00:26;16.40;99.90
20512;DHT22;10414;52.074;5.126;2023-02-15T10:03:10;15.60;99.90
20512;DHT22;10414;52.074;5.126;2023-02-15T10:05:47;14.30;99.90
20512;DHT22;10414;52.074;5.126;2023-02-15T10:08:44;14.40;99.90
20512;DHT22;10414;52.074;5.126;2023-02-15T10:11:16;14.60;99.90
20512;DHT22;10414;52.074;5.126;2023-02-15T10:14:18;15.60;99.90
20512;DHT22;10414;52.074;5.126;2023-02-15T10:16:53;15.60;99.90
20512;DHT22;10414;52.074;5.126;2023-02-15T10:19:27;16.00;99.90
20512;DHT22;10414;52.074;5.126;2023-02-15T10:22:06;18.10;99.70
20512;DHT22;10414;52.074;5.126;2023-02-15T10:24:56;16.40;99.40
20512;DHT22;10414;52.074;5.126;2023-02-15T10:27:29;17.10;99.70
20512;DHT22;10414;52.074;5.126;2023-02-15T10:30:08;15.50;99.90
20512;DHT22;10414;52.074;5.126;2023-02-15T10:32:40;16.20;99.90
20512;DHT22;10414;52.074;5.126;2023-02-15T10:35:22;17.80;99.30
20512;DHT22;10414;52.074;5.126;2023-02-15T10:37:59;18.50;97.90
20512;DHT22;10414;52.074;5.126;2023-02-15T10:40:35;18.70;97.30
20512;DHT22;10414;52.074;5.126;2023-02-15T10:46:17;17.00;98.90
20512;DHT22;10414;52.074;5.126;2023-02-15T10:49:03;17.50;98.80
20512;DHT22;10414;52.074;5.126;2023-02-15T10:51:42;17.40;99.00
20512;DHT22;10414;52.074;5.126;2023-02-15T10:54:22;16.60;99.20
20512;DHT22;10414;52.074;5.126;2023-02-15T10:56:58;16.60;99.80
20512;DHT22;10414;52.074;5.126;2023-02-15T10:59:43;16.10;99.90
20512;DHT22;10414;52.074;5.126;2023-02-15T11:02:20;16.30;99.90
20512;DHT22;10414;52.074;5.126;2023-02-15T11:04:55;15.50;99.90
20512;DHT22;10414;52.074;5.126;2023-02-15T11:07:27;15.60;99.90
20512;DHT22;10414;52.074;5.126;2023-02-15T11:10:05;14.80;99.90
20512;DHT22;10414;52.074;5.126;2023-02-15T11:12:34;14.70;99.90
20512;DHT22;10414;52.074;5.126;2023-02-15T11:15:04;13.30;99.90
20512;DHT22;10414;52.074;5.126;2023-02-15T11:17:42;13.60;99.90
20512;DHT22;10414;52.074;5.126;2023-02-15T11:20:17;13.80;99.90
20512;DHT22;10414;52.074;5.126;2023-02-15T11:22:48;14.60;99.90
20512;DHT22;10414;52.074;5.126;2023-02-15T11:25:18;13.70;99.90
20512;DHT22;10414;52.074;5.126;2023-02-15T11:27:47;12.90;99.90
20512;DHT22;10414;52.074;5.126;2023-02-15T11:30:19;13.20;99.90
20512;DHT22;10414;52.074;5.126;2023-02-15T11:32:49;13.10;99.90
20512;DHT22;10414;52.074;5.126;2023-02-15T11:35:22;13.50;99.90
20512;DHT22;10414;52.074;5.126;2023-02-15T11:37:54;13.50;99.90
20512;DHT22;10414;52.074;5.126;2023-02-15T11:40:24;13.60;99.90
20512;DHT22;10414;52.074;5.126;2023-02-15T11:42:55;13.60;99.90
20512;DHT22;10414;52.074;5.126;2023-02-15T11:45:26;13.90;99.90
20512;DHT22;10414;52.074;5.126;2023-02-15T11:47:56;13.70;99.90
20512;DHT22;10414;52.074;5.126;2023-02-15T11:50:25;13.50;99.90
20512;DHT22;10414;52.074;5.126;2023-02-15T11:52:58;13.60;99.90
20512;DHT22;10414;52.074;5.126;2023-02-15T11:55:27;14.10;99.90
20512;DHT22;10414;52.074;5.126;2023-02-15T11:57:58;14.00;99.90
20512;DHT22;10414;52.074;5.126;2023-02-15T12:00:32;14.50;99.90
20512;DHT22;10414;52.074;5.126;2023-02-15T12:03:09;14.20;99.90
20512;DHT22;10414;52.074;5.126;2023-02-15T12:05:41;13.80;99.90
20512;DHT22;10414;52.074;5.126;2023-02-15T12:08:17;13.90;99.90
20512;DHT22;10414;52.074;5.126;2023-02-15T12:11:04;13.60;99.90
20512;DHT22;10414;52.074;5.126;2023-02-15T12:13:33;13.80;99.90
20512;DHT22;10414;52.074;5.126;2023-02-15T12:16:06;13.70;99.90
20512;DHT22;10414;52.074;5.126;2023-02-15T12:18:40;13.50;99.90
20512;DHT22;10414;52.074;5.126;2023-02-15T12:21:12;13.90;99.90
20512;DHT22;10414;52.074;5.126;2023-02-15T12:23:47;13.70;99.90
20512;DHT22;10414;52.074;5.126;2023-02-15T12:26:15;13.60;99.90
20512;DHT22;10414;52.074;5.126;2023-02-15T12:28:50;14.00;99.90
20512;DHT22;10414;52.074;5.126;2023-02-15T12:31:21;14.40;99.90
20512;DHT22;10414;52.074;5.126;2023-02-15T12:33:52;14.30;99.90
20512;DHT22;10414;52.074;5.126;2023-02-15T12:36:21;14.40;99.90
20512;DHT22;10414;52.074;5.126;2023-02-15T12:39:14;14.50;99.90
20512;DHT22;10414;52.074;5.126;2023-02-15T12:41:45;14.20;99.90
20512;DHT22;10414;52.074;5.126;2023-02-15T12:44:16;13.80;99.90
20512;DHT22;10414;52.074;5.126;2023-02-15T12:46:59;13.70;99.90
20512;DHT22;10414;52.074;5.126;2023-02-15T12:49:28;13.90;99.90
20512;DHT22;10414;52.074;5.126;2023-02-15T12:51:57;13.90;99.90
20512;DHT22;10414;52.074;5.126;2023-02-15T12:54:33;13.30;99.90
20512;DHT22;10414;52.074;5.126;2023-02-15T12:57:24;13.40;99.90
20512;DHT22;10414;52.074;5.126;2023-02-15T12:59:54;13.30;99.90
20512;DHT22;10414;52.074;5.126;2023-02-15T13:02:25;13.00;99.90
20512;DHT22;10414;52.074;5.126;2023-02-15T13:04:56;13.20;99.90
20512;DHT22;10414;52.074;5.126;2023-02-15T13:07:25;13.20;99.90
20512;DHT22;10414;52.074;5.126;2023-02-15T13:09:52;13.20;99.90
20512;DHT22;10414;52.074;5.126;2023-02-15T13:12:21;13.30;99.90
20512;DHT22;10414;52.074;5.126;2023-02-15T13:14:51;13.30;99.90
20512;DHT22;10414;52.074;5.126;2023-02-15T13:17:23;13.20;99.90
20512;DHT22;10414;52.074;5.126;2023-02-15T13:19:59;13.10;99.90
20512;DHT22;10414;52.074;5.126;2023-02-15T13:22:37;13.30;99.90
20512;DHT22;10414;52.074;5.126;2023-02-15T13:25:12;13.60;99.90
20512;DHT22;10414;52.074;5.126;2023-02-15T13:27:41;14.10;99.90
20512;DHT22;10414;52.074;5.126;2023-02-15T13:30:18;14.30;99.90
20512;DHT22;10414;52.074;5.126;2023-02-15T13:32:49;13.90;99.90
20512;DHT22;10414;52.074;5.126;2023-02-15T13:35:18;14.00;99.90
20512;DHT22;10414;52.074;5.126;2023-02-15T13:38:02;13.70;99.90
20512;DHT22;10414;52.074;5.126;2023-02-15T13:40:34;13.70;99.90
20512;DHT22;10414;52.074;5.126;2023-02-15T13:43:13;14.10;99.90
20512;DHT22;10414;52.074;5.126;2023-02-15T13:46:02;14.10;99.90
20512;DHT22;10414;52.074;5.126;2023-02-15T13:48:40;14.20;99.90
20512;DHT22;10414;52.074;5.126;2023-02-15T13:51:15;13.90;99.90
20512;DHT22;10414;52.074;5.126;2023-02-15T13:53:54;13.80;99.90
20512;DHT22;10414;52.074;5.126;2023-02-15T13:56:29;13.90;99.90
20512;DHT22;10414;52.074;5.126;2023-02-15T13:59:38;13.50;99.90
20512;DHT22;10414;52.074;5.126;2023-02-15T14:02:38;13.80;99.90
20512;DHT22;10414;52.074;5.126;2023-02-15T14:05:21;13.80;99.90
20512;DHT22;10414;52.074;5.126;2023-02-15T14:08:01;13.70;99.90
20512;DHT22;10414;52.074;5.126;2023-02-15T14:10:51;13.40;99.90
20512;DHT22;10414;52.074;5.126;2023-02-15T14:13:48;13.30;99.90
20512;DHT22;10414;52.074;5.126;2023-02-15T14:16:27;13.30;99.90
20512;DHT22;10414;52.074;5.126;2023-02-15T14:19:05;13.30;99.90
20512;DHT22;10414;52.074;5.126;2023-02-15T14:21:42;13.20;99.90
20512;DHT22;10414;52.074;5.126;2023-02-15T14:24:24;13.30;99.90
20512;DHT22;10414;52.074;5.126;2023-02-15T14:27:03;13.40;99.90
20512;DHT22;10414;52.074;5.126;2023-02-15T14:29:43;13.60;99.90
20512;DHT22;10414;52.074;5.126;2023-02-15T14:32:14;13.40;99.90
20512;DHT22;10414;52.074;5.126;2023-02-15T14:34:48;13.40;99.90
20512;DHT22;10414;52.074;5.126;2023-02-15T14:37:21;13.30;99.90
20512;DHT22;10414;52.074;5.126;2023-02-15T14:39:58;13.30;99.90
20512;DHT22;10414;52.074;5.126;2023-02-15T14:42:50;13.20;99.90
20512;DHT22;10414;52.074;5.126;2023-02-15T14:45:21;13.10;99.90
20512;DHT22;10414;52.074;5.126;2023-02-15T14:47:59;12.90;99.90
20512;DHT22;10414;52.074;5.126;2023-02-15T14:50:39;13.00;99.90
20512;DHT22;10414;52.074;5.126;2023-02-15T14:53:35;13.10;99.90
20512;DHT22;10414;52.074;5.126;2023-02-15T14:56:26;13.20;99.90
20512;DHT22;10414;52.074;5.126;2023-02-15T14:59:14;13.00;99.90
20512;DHT22;10414;52.074;5.126;2023-02-15T15:01:53;12.90;99.90
20512;DHT22;10414;52.074;5.126;2023-02-15T15:04:26;12.70;99.90
20512;DHT22;10414;52.074;5.126;2023-02-15T15:07:19;12.90;99.90
20512;DHT22;10414;52.074;5.126;2023-02-15T15:09:58;13.10;99.90
20512;DHT22;10414;52.074;5.126;2023-02-15T15:12:40;13.10;99.90
20512;DHT22;10414;52.074;5.126;2023-02-15T15:15:10;12.70;99.90
20512;DHT22;10414;52.074;5.126;2023-02-15T15:18:03;12.80;99.90
20512;DHT22;10414;52.074;5.126;2023-02-15T15:20:44;12.60;99.90
20512;DHT22;10414;52.074;5.126;2023-02-15T15:23:43;12.70;99.90
20512;DHT22;10414;52.074;5.126;2023-02-15T15:26:27;12.60;99.90
20512;DHT22;10414;52.074;5.126;2023-02-15T15:29:04;12.60;99.90
20512;DHT22;10414;52.074;5.126;2023-02-15T15:31:48;12.70;99.90
20512;DHT22;10414;52.074;5.126;2023-02-15T15:34:54;12.50;99.90
20512;DHT22;10414;52.074;5.126;2023-02-15T15:40:47;12.30;99.90
20512;DHT22;10414;52.074;5.126;2023-02-15T15:43:50;12.30;99.90
20512;DHT22;10414;52.074;5.126;2023-02-15T15:49:31;12.10;99.90
20512;DHT22;10414;52.074;5.126;2023-02-15T15:52:00;12.00;99.90
20512;DHT22;10414;52.074;5.126;2023-02-15T15:54:28;12.00;99.90
20512;DHT22;10414;52.074;5.126;2023-02-15T15:56:59;12.00;99.90
20512;DHT22;10414;52.074;5.126;2023-02-15T15:59:29;12.10;99.90
20512;DHT22;10414;52.074;5.126;2023-02-15T16:02:03;12.10;99.90
20512;DHT22;10414;52.074;5.126;2023-02-15T16:04:43;12.10;99.90
20512;DHT22;10414;52.074;5.126;2023-02-15T16:07:20;12.00;99.90
20512;DHT22;10414;52.074;5.126;2023-02-15T16:09:57;12.00;99.90
20512;DHT22;10414;52.074;5.126;2023-02-15T16:12:25;11.70;99.90
20512;DHT22;10414;52.074;5.126;2023-02-15T16:14:54;11.60;99.90
20512;DHT22;10414;52.074;5.126;2023-02-15T16:17:24;11.60;99.90
20512;DHT22;10414;52.074;5.126;2023-02-15T16:20:03;11.50;99.90
20512;DHT22;10414;52.074;5.126;2023-02-15T16:22:32;11.40;99.90
20512;DHT22;10414;52.074;5.126;2023-02-15T16:25:30;11.50;99.90
20512;DHT22;10414;52.074;5.126;2023-02-15T16:28:06;11.60;99.90
20512;DHT22;10414;52.074;5.126;2023-02-15T16:30:34;11.50;99.90